Time;durP1;ratioP1;P1;durP2;ratioP2;P2;SDS_P1;SDS_P2;PMS_P1;PMS_P2;Temp;Humidity;BMP_temperature;BMP_pressure;BME280_temperature;BME280_humidity;BME280_pressure;Samples;Min_cycle;Max_cycle;Signal;HPM_P1;HPM_P2
2023/09/18 00:00:11;;;;;;;0.00;0.00;;;22.20;99.90;;;;;;5044494;28;20431;-73
2023/09/18 00:02:39;;;;;;;0.00;0.00;;;22.10;99.90;;;;;;5043234;28;20411;-73
2023/09/18 00:05:06;;;;;;;0.00;0.00;;;22.10;99.90;;;;;;5070343;28;20431;-73
2023/09/18 00:07:32;;;;;;;0.00;0.00;;;22.10;99.90;;;;;;5061330;28;20945;-73
2023/09/18 00:09:58;;;;;;;0.00;0.00;;;22.00;99.90;;;;;;5066457;28;20413;-74
2023/09/18 00:12:24;;;;;;;0.00;0.00;;;22.00;99.90;;;;;;5062117;28;20866;-74
2023/09/18 00:14:51;;;;;;;0.00;0.00;;;22.10;99.90;;;;;;5067070;28;21237;-73
2023/09/18 00:17:19;;;;;;;0.00;0.00;;;22.10;99.90;;;;;;5041295;28;20423;-73
2023/09/18 00:19:45;;;;;;;0.00;0.00;;;22.10;99.90;;;;;;5064976;28;20885;-74
2023/09/18 00:22:12;;;;;;;0.00;0.00;;;22.10;99.90;;;;;;5048970;28;20423;-73
2023/09/18 00:24:38;;;;;;;0.00;0.00;;;22.10;99.90;;;;;;5044510;28;20486;-73
2023/09/18 00:27:04;;;;;;;0.00;0.00;;;22.10;99.90;;;;;;5047110;28;20417;-74
2023/09/18 00:29:30;;;;;;;0.00;0.00;;;22.00;99.90;;;;;;5033662;28;20416;-73
2023/09/18 00:31:57;;;;;;;0.00;0.00;;;22.00;99.90;;;;;;5045900;28;21001;-73
2023/09/18 00:34:23;;;;;;;0.00;0.00;;;21.90;99.90;;;;;;5067609;28;20514;-74
2023/09/18 00:36:49;;;;;;;0.00;0.00;;;21.90;99.90;;;;;;5064038;28;20539;-73
2023/09/18 00:39:16;;;;;;;0.00;0.00;;;21.90;99.90;;;;;;5077999;27;20492;-73
2023/09/18 00:41:43;;;;;;;0.00;0.00;;;21.90;99.90;;;;;;5047467;28;20924;-74
2023/09/18 00:44:09;;;;;;;0.00;0.00;;;21.80;99.90;;;;;;5064319;28;20412;-73
2023/09/18 00:46:36;;;;;;;0.00;0.00;;;21.80;99.90;;;;;;5044419;28;20411;-73
2023/09/18 00:49:02;;;;;;;0.00;0.00;;;21.80;99.90;;;;;;5062733;28;20412;-73
2023/09/18 00:51:29;;;;;;;0.00;0.00;;;21.70;99.90;;;;;;5062750;28;20422;-73
2023/09/18 00:53:56;;;;;;;0.00;0.00;;;21.70;99.90;;;;;;5042169;28;20418;-73
2023/09/18 00:56:22;;;;;;;0.00;0.00;;;21.70;99.90;;;;;;5060211;28;20536;-73
2023/09/18 00:58:50;;;;;;;0.00;0.00;;;21.70;99.90;;;;;;5050468;28;20518;-73
2023/09/18 01:01:22;;;;;;;0.00;0.00;;;21.70;99.90;;;;;;5065050;28;20463;-73
2023/09/18 01:03:51;;;;;;;0.00;0.00;;;21.70;99.90;;;;;;5062592;28;20522;-73
2023/09/18 01:06:19;;;;;;;0.00;0.00;;;21.70;99.90;;;;;;5059213;28;20427;-73
2023/09/18 01:08:46;;;;;;;0.00;0.00;;;21.70;99.90;;;;;;5026894;28;20904;-73
2023/09/18 01:11:37;;;;;;;0.00;0.00;;;21.70;99.90;;;;;;5061591;28;20906;-73
2023/09/18 01:14:48;;;;;;;0.00;0.00;;;21.80;99.90;;;;;;5042478;28;20419;-73
2023/09/18 01:17:16;;;;;;;0.00;0.00;;;21.80;99.90;;;;;;4979661;28;20436;-73
2023/09/18 01:19:46;;;;;;;0.00;0.00;;;21.80;99.90;;;;;;4979010;28;20778;-73
2023/09/18 01:22:18;;;;;;;0.00;0.00;;;21.80;99.90;;;;;;5023304;28;20414;-73
2023/09/18 01:24:47;;;;;;;0.00;0.00;;;21.80;99.90;;;;;;5049696;28;20831;-73
2023/09/18 01:27:19;;;;;;;0.00;0.00;;;21.90;99.90;;;;;;5064118;28;20410;-73
2023/09/18 01:29:49;;;;;;;0.00;0.00;;;21.90;99.90;;;;;;5061278;28;20889;-73
2023/09/18 01:32:16;;;;;;;0.00;0.00;;;21.90;99.90;;;;;;5064444;28;20418;-73
2023/09/18 01:34:55;;;;;;;0.00;0.00;;;21.90;99.90;;;;;;5076778;27;20519;-73
2023/09/18 01:37:27;;;;;;;0.00;0.00;;;21.90;99.90;;;;;;5074962;27;20434;-73
2023/09/18 01:39:54;;;;;;;0.00;0.00;;;22.00;99.90;;;;;;5042086;28;20420;-73
2023/09/18 01:42:21;;;;;;;0.00;0.00;;;22.00;99.90;;;;;;5039229;28;20812;-73
2023/09/18 01:44:49;;;;;;;0.00;0.00;;;21.90;99.90;;;;;;5041804;28;20450;-73
2023/09/18 01:47:19;;;;;;;0.00;0.00;;;21.90;99.90;;;;;;5061445;28;20418;-73
2023/09/18 01:49:46;;;;;;;0.00;0.00;;;21.90;99.90;;;;;;5043110;28;20415;-72
2023/09/18 01:52:13;;;;;;;0.00;0.00;;;21.90;99.90;;;;;;5061435;28;20507;-72
2023/09/18 01:54:39;;;;;;;0.00;0.00;;;21.90;99.90;;;;;;5054054;28;20413;-72
2023/09/18 01:57:07;;;;;;;0.00;0.00;;;21.90;99.90;;;;;;5043849;28;20420;-72
2023/09/18 01:59:34;;;;;;;0.00;0.00;;;21.90;99.90;;;;;;5045893;28;20423;-72
2023/09/18 02:02:03;;;;;;;0.00;0.00;;;21.90;99.90;;;;;;5055362;28;20961;-72
2023/09/18 02:04:30;;;;;;;0.00;0.00;;;21.80;99.90;;;;;;5075431;28;20470;-72
2023/09/18 02:06:58;;;;;;;0.00;0.00;;;21.80;99.90;;;;;;5038867;28;20941;-72
2023/09/18 02:09:24;;;;;;;0.00;0.00;;;21.70;99.90;;;;;;5063275;28;20410;-74
2023/09/18 02:11:53;;;;;;;0.00;0.00;;;21.70;99.90;;;;;;5062184;28;20413;-73
2023/09/18 02:14:19;;;;;;;0.00;0.00;;;21.60;99.90;;;;;;5063445;28;20475;-73
2023/09/18 02:16:46;;;;;;;0.00;0.00;;;21.50;99.90;;;;;;5062235;28;20505;-72
2023/09/18 02:19:14;;;;;;;0.00;0.00;;;21.40;99.90;;;;;;5045378;28;20483;-73
2023/09/18 02:21:40;;;;;;;0.00;0.00;;;21.30;99.90;;;;;;5050446;28;20614;-73
2023/09/18 02:24:07;;;;;;;0.00;0.00;;;21.30;99.90;;;;;;5063850;28;20506;-72
2023/09/18 02:26:33;;;;;;;0.00;0.00;;;21.30;99.90;;;;;;5048971;28;20501;-72
2023/09/18 02:29:06;;;;;;;0.00;0.00;;;21.20;99.90;;;;;;5036746;28;20540;-72
2023/09/18 02:31:32;;;;;;;0.00;0.00;;;21.20;99.90;;;;;;5042372;28;20446;-72
2023/09/18 02:33:58;;;;;;;0.00;0.00;;;21.10;99.90;;;;;;5044324;28;20424;-72
2023/09/18 02:36:24;;;;;;;0.00;0.00;;;21.10;99.90;;;;;;5060462;28;20510;-73
2023/09/18 02:38:51;;;;;;;0.00;0.00;;;21.10;99.90;;;;;;5061632;28;20848;-72
2023/09/18 02:41:17;;;;;;;0.00;0.00;;;21.10;99.90;;;;;;5073518;28;20411;-73
2023/09/18 02:43:43;;;;;;;0.00;0.00;;;21.20;99.90;;;;;;5076446;28;20477;-73
2023/09/18 02:46:09;;;;;;;0.00;0.00;;;21.20;99.90;;;;;;5046063;28;20562;-73
2023/09/18 02:48:36;;;;;;;0.00;0.00;;;21.20;99.90;;;;;;5060740;28;20463;-73
2023/09/18 02:51:03;;;;;;;0.00;0.00;;;21.20;99.90;;;;;;5066312;28;20422;-73
2023/09/18 02:53:30;;;;;;;0.00;0.00;;;21.30;99.90;;;;;;5063638;28;20419;-73
2023/09/18 02:55:58;;;;;;;0.00;0.00;;;21.20;99.90;;;;;;5066255;28;20596;-73
2023/09/18 02:58:25;;;;;;;0.00;0.00;;;21.10;99.90;;;;;;5063788;28;20427;-73
2023/09/18 03:00:57;;;;;;;0.00;0.00;;;21.10;99.90;;;;;;5051640;28;20434;-73
2023/09/18 03:03:23;;;;;;;0.00;0.00;;;21.10;99.90;;;;;;5063675;28;20807;-73
2023/09/18 03:05:49;;;;;;;0.00;0.00;;;21.10;99.90;;;;;;5049711;28;20427;-73
2023/09/18 03:08:16;;;;;;;0.00;0.00;;;21.10;99.90;;;;;;5052935;28;20415;-74
2023/09/18 03:10:44;;;;;;;0.00;0.00;;;21.10;99.90;;;;;;5082752;27;21278;-73
2023/09/18 03:13:14;;;;;;;0.00;0.00;;;21.10;99.90;;;;;;5063282;28;20504;-73
2023/09/18 03:15:40;;;;;;;0.00;0.00;;;21.10;99.90;;;;;;5046015;28;20421;-73
2023/09/18 03:18:09;;;;;;;0.00;0.00;;;21.10;99.90;;;;;;5063427;28;20450;-75
2023/09/18 03:20:35;;;;;;;0.00;0.00;;;21.10;99.90;;;;;;5060003;28;20430;-74
2023/09/18 03:23:03;;;;;;;0.00;0.00;;;21.10;99.90;;;;;;5077620;27;20419;-74
2023/09/18 03:25:29;;;;;;;0.00;0.00;;;21.00;99.90;;;;;;5061705;28;20423;-74
2023/09/18 03:27:58;;;;;;;0.00;0.00;;;21.00;99.90;;;;;;5062675;28;20424;-75
2023/09/18 03:30:25;;;;;;;0.00;0.00;;;21.00;99.90;;;;;;5076339;27;20454;-75
2023/09/18 03:32:52;;;;;;;0.00;0.00;;;20.90;99.90;;;;;;5058849;28;21305;-75
2023/09/18 03:35:20;;;;;;;0.00;0.00;;;20.90;99.90;;;;;;5064390;28;20465;-75
2023/09/18 03:37:50;;;;;;;0.00;0.00;;;20.90;99.90;;;;;;5062509;28;20884;-76
2023/09/18 03:40:18;;;;;;;0.00;0.00;;;20.90;99.90;;;;;;5063080;28;20994;-74
2023/09/18 03:42:46;;;;;;;0.00;0.00;;;21.00;99.90;;;;;;5058263;28;20541;-74
2023/09/18 03:45:13;;;;;;;0.00;0.00;;;20.90;99.90;;;;;;5060319;28;20487;-74
2023/09/18 03:47:41;;;;;;;0.00;0.00;;;21.00;99.90;;;;;;5065079;28;20469;-74
2023/09/18 03:50:13;;;;;;;0.00;0.00;;;20.90;99.90;;;;;;5062447;28;20496;-74
2023/09/18 03:52:40;;;;;;;0.00;0.00;;;21.00;99.90;;;;;;5060479;28;20484;-74
2023/09/18 03:55:08;;;;;;;0.00;0.00;;;20.90;99.90;;;;;;5043448;28;20423;-74
2023/09/18 03:57:35;;;;;;;0.00;0.00;;;21.00;99.90;;;;;;5076697;27;21188;-74
2023/09/18 04:00:02;;;;;;;0.00;0.00;;;20.90;99.90;;;;;;5046273;28;20413;-74
2023/09/18 04:02:30;;;;;;;0.00;0.00;;;21.00;99.90;;;;;;5040369;28;20452;-74
2023/09/18 04:04:56;;;;;;;0.00;0.00;;;20.90;99.90;;;;;;5051290;28;20426;-75
2023/09/18 04:07:22;;;;;;;0.00;0.00;;;20.90;99.90;;;;;;5045823;28;20429;-74
2023/09/18 04:09:48;;;;;;;0.00;0.00;;;20.90;99.90;;;;;;5068781;28;20495;-74
2023/09/18 04:12:15;;;;;;;0.00;0.00;;;20.90;99.90;;;;;;5059853;28;20471;-75
2023/09/18 04:14:42;;;;;;;0.00;0.00;;;20.90;99.90;;;;;;5080694;27;20416;-74
2023/09/18 04:17:08;;;;;;;0.00;0.00;;;20.90;99.90;;;;;;5044182;28;20415;-74
2023/09/18 04:19:34;;;;;;;0.00;0.00;;;20.90;99.90;;;;;;5067145;28;20421;-74
2023/09/18 04:22:00;;;;;;;0.00;0.00;;;20.90;99.90;;;;;;5062576;28;20447;-74
2023/09/18 04:24:27;;;;;;;0.00;0.00;;;20.90;99.90;;;;;;5066578;28;20418;-75
2023/09/18 04:26:53;;;;;;;0.00;0.00;;;20.90;99.90;;;;;;5069313;27;20882;-74
2023/09/18 04:29:20;;;;;;;0.00;0.00;;;21.00;99.90;;;;;;5044785;28;20431;-74
2023/09/18 04:31:49;;;;;;;0.00;0.00;;;21.00;99.90;;;;;;5046426;28;20590;-73
2023/09/18 04:34:15;;;;;;;0.00;0.00;;;21.00;99.90;;;;;;5046545;28;20407;-74
2023/09/18 04:36:43;;;;;;;0.00;0.00;;;21.00;99.90;;;;;;5077893;27;20412;-73
2023/09/18 04:39:10;;;;;;;0.00;0.00;;;21.00;99.90;;;;;;5066287;28;20468;-73
2023/09/18 04:41:37;;;;;;;0.00;0.00;;;21.00;99.90;;;;;;5064316;28;20441;-74
2023/09/18 04:44:05;;;;;;;0.00;0.00;;;21.00;99.90;;;;;;5081111;27;20989;-74
2023/09/18 04:46:31;;;;;;;0.00;0.00;;;21.00;99.90;;;;;;5064006;28;20448;-74
2023/09/18 04:48:57;;;;;;;0.00;0.00;;;21.10;99.90;;;;;;5065938;28;20410;-74
2023/09/18 04:51:23;;;;;;;0.00;0.00;;;21.10;99.90;;;;;;5062620;28;20423;-74
2023/09/18 04:53:51;;;;;;;0.00;0.00;;;21.00;99.90;;;;;;5042761;28;20932;-74
2023/09/18 04:56:18;;;;;;;0.00;0.00;;;21.00;99.90;;;;;;5067656;28;21144;-74
2023/09/18 04:58:44;;;;;;;0.00;0.00;;;21.00;99.90;;;;;;5049779;28;21093;-74
2023/09/18 05:01:10;;;;;;;0.00;0.00;;;21.10;99.90;;;;;;5043061;28;20435;-74
2023/09/18 05:03:37;;;;;;;0.00;0.00;;;21.10;99.90;;;;;;5029855;28;21761;-74
2023/09/18 05:06:04;;;;;;;0.00;0.00;;;21.10;99.90;;;;;;5036206;28;20762;-74
2023/09/18 05:08:31;;;;;;;0.00;0.00;;;21.20;99.90;;;;;;5060416;28;20496;-75
2023/09/18 05:10:58;;;;;;;0.00;0.00;;;21.20;99.90;;;;;;5042429;28;20595;-74
2023/09/18 05:13:24;;;;;;;0.00;0.00;;;21.30;99.90;;;;;;5029458;28;20416;-74
2023/09/18 05:15:51;;;;;;;0.00;0.00;;;21.40;99.90;;;;;;5061259;28;20413;-74
2023/09/18 05:18:17;;;;;;;0.00;0.00;;;21.40;99.90;;;;;;5061533;28;20559;-74
2023/09/18 05:20:43;;;;;;;0.00;0.00;;;21.50;99.90;;;;;;5075192;27;20427;-74
2023/09/18 05:23:09;;;;;;;0.00;0.00;;;21.50;99.90;;;;;;5061672;28;20432;-74
2023/09/18 05:25:38;;;;;;;0.00;0.00;;;21.60;99.90;;;;;;5060101;28;20962;-74
2023/09/18 05:28:05;;;;;;;0.00;0.00;;;21.60;99.90;;;;;;5048582;28;20434;-74
2023/09/18 05:30:38;;;;;;;0.00;0.00;;;21.70;99.90;;;;;;5032342;28;20415;-74
2023/09/18 05:33:07;;;;;;;0.00;0.00;;;21.70;99.90;;;;;;5055171;28;20891;-74
2023/09/18 05:35:37;;;;;;;0.00;0.00;;;21.80;99.90;;;;;;5060807;28;20422;-74
2023/09/18 05:38:06;;;;;;;0.00;0.00;;;21.80;99.90;;;;;;5059815;28;20413;-74
2023/09/18 05:40:33;;;;;;;0.00;0.00;;;21.90;99.90;;;;;;5060578;28;20421;-74
2023/09/18 05:42:59;;;;;;;0.00;0.00;;;22.00;99.90;;;;;;5041181;28;20427;-74
2023/09/18 05:45:28;;;;;;;0.00;0.00;;;22.00;99.90;;;;;;5047511;28;20422;-74
2023/09/18 05:48:01;;;;;;;0.00;0.00;;;22.00;99.90;;;;;;5058886;28;20477;-74
2023/09/18 05:50:29;;;;;;;0.00;0.00;;;22.10;99.90;;;;;;5044705;28;20433;-74
2023/09/18 05:53:00;;;;;;;0.00;0.00;;;22.20;99.90;;;;;;5074543;27;21053;-74
2023/09/18 05:55:27;;;;;;;0.00;0.00;;;22.20;99.90;;;;;;5062097;28;21499;-74
2023/09/18 05:57:54;;;;;;;0.00;0.00;;;22.30;99.80;;;;;;5044003;28;20653;-74
2023/09/18 06:00:21;;;;;;;0.00;0.00;;;22.30;98.90;;;;;;5052268;28;20461;-74
2023/09/18 06:02:51;;;;;;;0.00;0.00;;;22.40;99.00;;;;;;5039701;28;21023;-74
2023/09/18 06:05:21;;;;;;;0.00;0.00;;;22.40;98.70;;;;;;5041969;28;20423;-74
2023/09/18 06:07:49;;;;;;;0.00;0.00;;;22.60;99.20;;;;;;5034360;28;20446;-74
2023/09/18 06:10:16;;;;;;;0.00;0.00;;;22.60;98.40;;;;;;5038756;28;20748;-74
2023/09/18 06:12:43;;;;;;;0.00;0.00;;;22.70;98.60;;;;;;5043983;28;20411;-74
2023/09/18 06:15:11;;;;;;;0.00;0.00;;;22.70;98.00;;;;;;5043783;28;20424;-74
2023/09/18 06:17:43;;;;;;;0.00;0.00;;;22.80;98.40;;;;;;5036633;28;20405;-74
2023/09/18 06:20:15;;;;;;;0.00;0.00;;;22.80;98.50;;;;;;5036372;28;20976;-74
2023/09/18 06:22:42;;;;;;;0.00;0.00;;;22.90;99.80;;;;;;5073898;27;20449;-74
2023/09/18 06:25:09;;;;;;;0.00;0.00;;;23.00;99.90;;;;;;5048637;28;21306;-73
2023/09/18 06:27:37;;;;;;;0.00;0.00;;;23.00;99.90;;;;;;5041300;28;20403;-73
2023/09/18 06:30:05;;;;;;;0.00;0.00;;;23.10;99.90;;;;;;5038506;28;20480;-72
2023/09/18 06:32:32;;;;;;;0.00;0.00;;;23.10;99.90;;;;;;5044451;28;20422;-73
2023/09/18 06:35:00;;;;;;;0.00;0.00;;;23.20;99.90;;;;;;5044036;28;20419;-73
2023/09/18 06:37:27;;;;;;;0.00;0.00;;;23.30;99.90;;;;;;5042001;28;21292;-73
2023/09/18 06:39:53;;;;;;;0.00;0.00;;;23.30;99.90;;;;;;5044762;28;20423;-73
2023/09/18 06:42:20;;;;;;;0.00;0.00;;;23.40;99.90;;;;;;5048692;28;20539;-73
2023/09/18 06:44:46;;;;;;;0.00;0.00;;;23.50;99.90;;;;;;5045284;28;20435;-73
2023/09/18 06:47:16;;;;;;;0.00;0.00;;;23.50;99.90;;;;;;5046952;28;20417;-74
2023/09/18 06:49:42;;;;;;;0.00;0.00;;;23.60;99.90;;;;;;5026666;28;20416;-73
2023/09/18 06:52:10;;;;;;;0.00;0.00;;;23.60;99.90;;;;;;5027465;28;20417;-73
2023/09/18 06:54:36;;;;;;;0.00;0.00;;;23.80;99.90;;;;;;5037495;28;20770;-73
2023/09/18 06:57:03;;;;;;;0.00;0.00;;;23.80;99.90;;;;;;5035959;28;20413;-73
2023/09/18 06:59:29;;;;;;;0.00;0.00;;;23.90;99.90;;;;;;5020166;28;20429;-73
2023/09/18 07:01:56;;;;;;;0.00;0.00;;;24.00;99.90;;;;;;5054005;28;21092;-73
2023/09/18 07:04:22;;;;;;;0.00;0.00;;;24.10;99.90;;;;;;5062091;28;20441;-73
2023/09/18 07:06:49;;;;;;;0.00;0.00;;;24.20;99.90;;;;;;5036507;28;20421;-74
2023/09/18 07:09:23;;;;;;;0.00;0.00;;;24.30;99.90;;;;;;5028071;28;20521;-73
2023/09/18 07:11:49;;;;;;;0.00;0.00;;;24.30;99.90;;;;;;5041317;28;20443;-73
2023/09/18 07:14:15;;;;;;;0.00;0.00;;;24.40;99.90;;;;;;5041511;28;20502;-73
2023/09/18 07:16:41;;;;;;;0.00;0.00;;;24.50;99.90;;;;;;5040121;28;20429;-73
2023/09/18 07:19:11;;;;;;;0.00;0.00;;;24.60;99.90;;;;;;5041039;28;20459;-73
2023/09/18 07:21:42;;;;;;;0.00;0.00;;;24.70;99.90;;;;;;5072367;27;20425;-73
2023/09/18 07:24:10;;;;;;;0.00;0.00;;;24.80;99.90;;;;;;5039534;28;21084;-73
2023/09/18 07:26:39;;;;;;;0.00;0.00;;;24.80;99.90;;;;;;5041942;28;20410;-73
2023/09/18 07:29:06;;;;;;;0.00;0.00;;;25.00;99.90;;;;;;5032611;28;20419;-73
2023/09/18 07:31:37;;;;;;;0.00;0.00;;;25.10;99.90;;;;;;5046569;28;20712;-73
2023/09/18 07:34:07;;;;;;;0.00;0.00;;;25.20;99.90;;;;;;5047283;28;21055;-73
2023/09/18 07:36:33;;;;;;;0.00;0.00;;;25.20;99.90;;;;;;5048441;28;20425;-73
2023/09/18 07:39:03;;;;;;;0.00;0.00;;;25.30;99.90;;;;;;5048933;28;20420;-73
2023/09/18 07:41:29;;;;;;;0.00;0.00;;;25.40;99.90;;;;;;5043862;28;20505;-73
2023/09/18 07:43:57;;;;;;;0.00;0.00;;;25.40;99.90;;;;;;5063378;28;20788;-73
2023/09/18 07:46:23;;;;;;;0.00;0.00;;;25.50;99.90;;;;;;5030236;28;20409;-73
2023/09/18 07:48:50;;;;;;;0.00;0.00;;;25.50;99.90;;;;;;5044920;28;20414;-74
2023/09/18 07:51:16;;;;;;;0.00;0.00;;;25.60;99.90;;;;;;5043696;28;20445;-73
2023/09/18 07:53:43;;;;;;;0.00;0.00;;;25.60;99.90;;;;;;5044399;28;20445;-73
2023/09/18 07:56:10;;;;;;;0.10;0.10;;;25.70;99.90;;;;;;5048100;28;20432;-73
2023/09/18 07:58:38;;;;;;;0.00;0.00;;;25.80;99.90;;;;;;5044792;28;20442;-73
2023/09/18 08:01:06;;;;;;;0.00;0.00;;;25.80;99.90;;;;;;5040553;28;20999;-73
2023/09/18 08:03:32;;;;;;;0.00;0.00;;;25.80;99.90;;;;;;5047415;28;20971;-73
2023/09/18 08:05:59;;;;;;;0.00;0.00;;;25.90;99.90;;;;;;5067271;28;20415;-73
2023/09/18 08:08:25;;;;;;;0.08;0.08;;;26.00;99.90;;;;;;5049094;28;20415;-73
2023/09/18 08:10:52;;;;;;;0.00;0.00;;;26.00;99.90;;;;;;5045669;28;20460;-73
2023/09/18 08:13:19;;;;;;;0.10;0.10;;;26.10;99.90;;;;;;5047269;28;20453;-73
2023/09/18 08:15:46;;;;;;;0.05;0.05;;;26.10;99.90;;;;;;5047519;28;20465;-73
2023/09/18 08:18:15;;;;;;;0.00;0.00;;;26.20;99.90;;;;;;5067196;28;20496;-73
2023/09/18 08:20:45;;;;;;;0.03;0.03;;;26.30;99.90;;;;;;5079430;27;20421;-72
2023/09/18 08:23:12;;;;;;;0.00;0.00;;;26.30;99.90;;;;;;5066542;28;20423;-73
2023/09/18 08:25:40;;;;;;;0.00;0.00;;;26.40;99.90;;;;;;5048626;28;20462;-73
2023/09/18 08:28:06;;;;;;;0.00;0.00;;;26.40;99.90;;;;;;5049518;28;20877;-73
2023/09/18 08:30:33;;;;;;;0.00;0.00;;;26.50;99.90;;;;;;5043442;28;20485;-73
2023/09/18 08:32:59;;;;;;;0.10;0.10;;;26.50;99.90;;;;;;5060867;28;20464;-73
2023/09/18 08:35:29;;;;;;;0.00;0.00;;;26.60;99.90;;;;;;5026093;28;20947;-73
2023/09/18 08:37:56;;;;;;;0.07;0.07;;;26.60;99.90;;;;;;5052046;28;20422;-73
2023/09/18 08:40:25;;;;;;;0.00;0.00;;;26.70;99.90;;;;;;5050252;28;21036;-73
2023/09/18 08:42:56;;;;;;;0.00;0.00;;;26.80;99.90;;;;;;5065135;28;20414;-74
2023/09/18 08:45:43;;;;;;;0.08;0.08;;;26.80;99.90;;;;;;5046374;28;20506;-74
2023/09/18 08:48:10;;;;;;;0.10;0.10;;;26.90;99.90;;;;;;5027715;28;20423;-74
2023/09/18 08:50:38;;;;;;;0.00;0.00;;;27.00;99.90;;;;;;5060437;28;20994;-74
2023/09/18 08:53:05;;;;;;;0.08;0.08;;;27.00;99.90;;;;;;5059218;28;20415;-73
2023/09/18 08:55:33;;;;;;;0.00;0.00;;;27.00;99.90;;;;;;5078200;27;24991;-74
2023/09/18 08:58:00;;;;;;;0.00;0.00;;;27.10;99.90;;;;;;5043043;28;20426;-73
2023/09/18 09:00:27;;;;;;;0.00;0.00;;;27.20;99.90;;;;;;5072229;27;20420;-73
2023/09/18 09:02:54;;;;;;;0.00;0.00;;;27.30;99.90;;;;;;5054182;28;20508;-73
2023/09/18 09:05:22;;;;;;;0.00;0.00;;;27.40;99.90;;;;;;5075158;27;20582;-74
2023/09/18 09:07:50;;;;;;;0.00;0.00;;;27.40;99.90;;;;;;5065071;28;20421;-73
2023/09/18 09:10:18;;;;;;;0.10;0.10;;;27.50;99.90;;;;;;5042272;28;20407;-73
2023/09/18 09:12:57;;;;;;;0.00;0.00;;;27.60;99.90;;;;;;5040852;28;20546;-74
2023/09/18 09:15:55;;;;;;;0.00;0.00;;;27.70;99.90;;;;;;5062927;28;20433;-73
2023/09/18 09:18:27;;;;;;;0.03;0.03;;;27.80;99.90;;;;;;5024261;28;20424;-74
2023/09/18 09:21:04;;;;;;;0.10;0.10;;;27.90;99.90;;;;;;5051049;28;20410;-75
2023/09/18 09:23:51;;;;;;;0.05;0.05;;;28.00;99.90;;;;;;5045254;28;20415;-74
2023/09/18 09:26:21;;;;;;;0.00;0.00;;;28.00;99.90;;;;;;5056672;28;20435;-75
2023/09/18 09:28:48;;;;;;;0.10;0.10;;;28.10;99.90;;;;;;5081517;28;20427;-72
2023/09/18 09:31:30;;;;;;;0.10;0.10;;;28.20;99.90;;;;;;5080616;22;20482;-82
2023/09/18 09:33:58;;;;;;;0.08;0.08;;;28.40;99.90;;;;;;5006808;28;21308;-85
2023/09/18 09:36:27;;;;;;;0.10;0.10;;;28.40;99.90;;;;;;5041888;28;20413;-86
2023/09/18 09:38:58;;;;;;;0.00;0.00;;;28.50;99.90;;;;;;5003279;28;20471;-84
2023/09/18 09:41:27;;;;;;;0.08;0.08;;;28.70;99.90;;;;;;5014929;28;20448;-85
2023/09/18 09:43:55;;;;;;;0.08;0.08;;;28.80;99.90;;;;;;5036375;28;20428;-90
2023/09/18 09:46:25;;;;;;;0.10;0.10;;;28.90;99.90;;;;;;5025790;28;20455;-84
2023/09/18 09:49:03;;;;;;;0.08;0.08;;;29.00;99.90;;;;;;5024510;28;20422;-87
2023/09/18 09:51:34;;;;;;;0.00;0.00;;;29.20;99.90;;;;;;5022754;28;20414;-83
2023/09/18 09:54:01;;;;;;;0.03;0.03;;;29.20;99.90;;;;;;5017256;28;20525;-87
2023/09/18 09:56:47;;;;;;;0.10;0.10;;;29.30;99.90;;;;;;5019203;28;20424;-83
2023/09/18 09:59:15;;;;;;;0.10;0.10;;;29.30;99.90;;;;;;5006107;28;20421;-82
2023/09/18 10:01:48;;;;;;;0.10;0.10;;;29.50;99.90;;;;;;5024164;28;20418;-91
2023/09/18 10:04:19;;;;;;;0.10;0.10;;;29.50;99.90;;;;;;5019336;28;20497;-89
2023/09/18 10:07:08;;;;;;;0.00;0.00;;;29.50;99.90;;;;;;5022628;28;20516;-82
2023/09/18 10:09:42;;;;;;;0.10;0.10;;;29.60;99.90;;;;;;5023770;28;20498;-86
2023/09/18 10:12:20;;;;;;;0.10;0.10;;;29.70;99.90;;;;;;5019391;28;20775;-85
2023/09/18 10:14:53;;;;;;;0.05;0.05;;;29.80;99.90;;;;;;5008182;28;20414;-83
2023/09/18 10:17:20;;;;;;;0.10;0.10;;;29.80;99.90;;;;;;4999788;28;22074;-84
2023/09/18 10:20:15;;;;;;;0.00;0.00;;;29.80;99.90;;;;;;5025871;28;20561;-86
2023/09/18 10:22:57;;;;;;;0.10;0.10;;;29.80;99.90;;;;;;5001724;28;20448;-85
2023/09/18 10:25:35;;;;;;;0.10;0.10;;;29.90;99.90;;;;;;5004035;28;20411;-82
2023/09/18 10:28:07;;;;;;;0.10;0.10;;;29.80;99.90;;;;;;5024220;28;20905;-87
2023/09/18 10:30:37;;;;;;;0.10;0.10;;;29.90;99.90;;;;;;5024899;28;20413;-86
2023/09/18 10:33:07;;;;;;;0.07;0.07;;;29.90;99.90;;;;;;5018552;28;20408;-88
2023/09/18 10:35:35;;;;;;;0.10;0.10;;;29.80;99.90;;;;;;5007147;28;20472;-85
2023/09/18 10:38:06;;;;;;;0.10;0.10;;;29.80;99.90;;;;;;5020646;28;20417;-82
2023/09/18 10:40:36;;;;;;;0.10;0.10;;;29.70;99.90;;;;;;5017758;28;21048;-83
2023/09/18 10:43:09;;;;;;;0.10;0.10;;;29.80;99.90;;;;;;5020751;28;20407;-85
2023/09/18 10:45:37;;;;;;;0.05;0.05;;;29.80;99.90;;;;;;5004136;28;20406;-89
2023/09/18 10:48:09;;;;;;;0.10;0.10;;;29.70;99.90;;;;;;5011431;28;20409;-89
2023/09/18 10:50:36;;;;;;;0.10;0.10;;;29.80;99.90;;;;;;5024352;28;20416;-86
2023/09/18 10:53:03;;;;;;;0.10;0.10;;;29.70;99.90;;;;;;5010024;28;20449;-88
2023/09/18 10:55:33;;;;;;;0.10;0.10;;;29.70;99.90;;;;;;5029455;28;20421;-82
2023/09/18 10:58:00;;;;;;;0.10;0.10;;;29.70;99.90;;;;;;5023475;28;20509;-86
2023/09/18 11:00:31;;;;;;;0.10;0.10;;;29.70;99.90;;;;;;5011567;28;20473;-86
2023/09/18 11:03:19;;;;;;;0.10;0.10;;;29.70;99.90;;;;;;5043042;28;20733;-88
2023/09/18 11:05:47;;;;;;;0.10;0.10;;;29.70;99.90;;;;;;5011611;28;20492;-83
2023/09/18 11:09:06;;;;;;;0.10;0.10;;;29.60;99.90;;;;;;5109774;27;20386;-76
2023/09/18 11:11:35;;;;;;;0.10;0.10;;;29.70;99.90;;;;;;5111816;27;20449;-76
2023/09/18 11:14:04;;;;;;;0.10;0.10;;;29.60;99.90;;;;;;5123343;27;20429;-76
2023/09/18 11:16:31;;;;;;;0.10;0.10;;;29.50;99.90;;;;;;5111025;27;20407;-76
2023/09/18 11:19:00;;;;;;;0.10;0.10;;;29.50;99.90;;;;;;5091152;27;21086;-76
2023/09/18 11:21:30;;;;;;;0.10;0.10;;;29.60;99.90;;;;;;5108845;27;20407;-76
2023/09/18 11:24:19;;;;;;;0.10;0.10;;;29.60;99.90;;;;;;5109137;27;20427;-76
2023/09/18 11:26:49;;;;;;;0.10;0.10;;;29.50;99.90;;;;;;5108416;27;20427;-76
2023/09/18 11:29:22;;;;;;;0.10;0.10;;;29.50;99.90;;;;;;5129056;27;20969;-76
2023/09/18 11:31:56;;;;;;;0.10;0.10;;;29.50;99.90;;;;;;5115556;27;20439;-76
2023/09/18 11:34:38;;;;;;;0.10;0.10;;;29.60;99.90;;;;;;5109185;27;20797;-76
2023/09/18 11:37:22;;;;;;;0.03;0.03;;;29.60;99.90;;;;;;5109377;27;20892;-76
2023/09/18 11:39:49;;;;;;;0.00;0.00;;;29.60;99.90;;;;;;5118317;27;20497;-76
2023/09/18 11:42:26;;;;;;;0.10;0.10;;;29.50;99.90;;;;;;5109021;27;20474;-76
2023/09/18 11:44:54;;;;;;;0.10;0.10;;;29.60;99.90;;;;;;5111893;27;20967;-76
2023/09/18 11:47:26;;;;;;;0.10;0.10;;;29.50;99.90;;;;;;5115816;27;20450;-76
2023/09/18 11:50:00;;;;;;;0.10;0.10;;;29.50;99.90;;;;;;5115622;27;21004;-76
2023/09/18 11:52:29;;;;;;;0.10;0.10;;;29.60;99.90;;;;;;5110636;27;20455;-76
2023/09/18 11:55:00;;;;;;;0.10;0.10;;;29.60;99.90;;;;;;5112490;27;20522;-76
2023/09/18 11:57:28;;;;;;;0.10;0.10;;;29.50;99.90;;;;;;5111832;27;20413;-76
2023/09/18 11:59:55;;;;;;;0.10;0.10;;;29.60;99.90;;;;;;5115232;27;20476;-76
2023/09/18 12:02:35;;;;;;;0.10;0.10;;;29.60;99.90;;;;;;5090921;28;20789;-76
2023/09/18 12:05:18;;;;;;;0.10;0.10;;;29.50;99.90;;;;;;5109187;27;20732;-76
2023/09/18 12:07:46;;;;;;;0.10;0.10;;;29.50;99.90;;;;;;5123834;27;20503;-76
2023/09/18 12:10:20;;;;;;;0.03;0.03;;;29.50;99.90;;;;;;5105251;27;20765;-75
2023/09/18 12:12:47;;;;;;;0.10;0.10;;;29.50;99.90;;;;;;5110839;27;20405;-76
2023/09/18 12:15:16;;;;;;;0.10;0.10;;;29.50;99.90;;;;;;5109501;27;20416;-76
2023/09/18 12:17:43;;;;;;;0.10;0.10;;;29.50;99.90;;;;;;5118483;27;20402;-76
2023/09/18 12:20:20;;;;;;;0.10;0.10;;;29.50;99.90;;;;;;5122260;27;20408;-76
2023/09/18 12:22:50;;;;;;;0.10;0.10;;;29.50;99.90;;;;;;5101675;27;20426;-76
2023/09/18 12:25:18;;;;;;;0.00;0.00;;;29.40;99.90;;;;;;5095483;28;20511;-76
2023/09/18 12:27:45;;;;;;;0.10;0.10;;;29.40;99.90;;;;;;5098738;27;20906;-76
2023/09/18 12:30:20;;;;;;;0.10;0.10;;;29.40;99.90;;;;;;5092876;27;20501;-76
2023/09/18 12:32:49;;;;;;;0.10;0.10;;;29.40;99.90;;;;;;5094397;27;20438;-76
2023/09/18 12:35:18;;;;;;;0.07;0.07;;;29.40;99.90;;;;;;5095242;27;20436;-76
2023/09/18 12:37:45;;;;;;;0.10;0.10;;;29.40;99.90;;;;;;5089828;27;20440;-76
2023/09/18 12:40:26;;;;;;;0.10;0.10;;;29.40;99.90;;;;;;5095536;27;20471;-76
2023/09/18 12:42:56;;;;;;;0.10;0.10;;;29.30;99.90;;;;;;5095670;27;20412;-76
2023/09/18 12:45:24;;;;;;;0.10;0.10;;;29.30;99.90;;;;;;5128069;27;20543;-76
2023/09/18 12:47:52;;;;;;;0.00;0.00;;;29.40;99.90;;;;;;5093833;27;20429;-76
2023/09/18 12:50:18;;;;;;;0.10;0.10;;;29.40;99.90;;;;;;5100082;27;20476;-76
2023/09/18 12:52:44;;;;;;;0.10;0.10;;;29.40;99.90;;;;;;5094401;27;20416;-76
2023/09/18 12:55:27;;;;;;;0.08;0.08;;;29.40;99.90;;;;;;5103257;27;20420;-76
2023/09/18 12:57:55;;;;;;;0.00;0.00;;;29.40;99.90;;;;;;5092529;27;20478;-76